createdAt,value
2022-09-03T00:02:21.575Z,100.00
2022-09-03T00:04:59.778Z,100.00
2022-09-03T00:08:06.338Z,100.00
2022-09-03T00:10:55.582Z,100.00
2022-09-03T00:13:28.083Z,100.00
2022-09-03T00:15:57.485Z,100.00
2022-09-03T00:18:30.083Z,100.00
2022-09-03T00:21:08.780Z,100.00
2022-09-03T00:23:39.507Z,100.00
2022-09-03T00:26:12.612Z,100.00
2022-09-03T00:28:48.062Z,100.00
2022-09-03T00:31:20.046Z,100.00
2022-09-03T00:33:48.703Z,100.00
2022-09-03T00:36:20.405Z,100.00
2022-09-03T00:38:47.757Z,100.00
2022-09-03T00:41:30.056Z,100.00
2022-09-03T00:44:08.209Z,100.00
2022-09-03T00:47:00.419Z,100.00
2022-09-03T00:49:54.802Z,100.00
2022-09-03T00:52:41.580Z,100.00
2022-09-03T00:55:39.588Z,100.00
2022-09-03T00:58:26.598Z,100.00
2022-09-03T01:00:53.919Z,100.00
2022-09-03T01:03:24.277Z,100.00
2022-09-03T01:06:13.562Z,100.00
2022-09-03T01:09:04.210Z,100.00
2022-09-03T01:11:47.334Z,100.00
2022-09-03T01:14:17.769Z,100.00
2022-09-03T01:17:10.316Z,100.00
2022-09-03T01:20:15.806Z,100.00
2022-09-03T01:23:21.696Z,100.00
2022-09-03T01:25:53.445Z,100.00
2022-09-03T01:28:55.490Z,100.00
2022-09-03T01:31:42.505Z,100.00
2022-09-03T01:34:47.274Z,100.00
2022-09-03T01:37:52.949Z,100.00
2022-09-03T01:40:43.420Z,100.00
2022-09-03T01:43:15.971Z,100.00
2022-09-03T01:46:18.771Z,100.00
2022-09-03T01:49:25.411Z,100.00
2022-09-03T01:52:21.287Z,100.00
2022-09-03T01:55:01.478Z,100.00
2022-09-03T01:57:56.452Z,100.00
2022-09-03T02:00:25.498Z,100.00
2022-09-03T02:02:53.336Z,100.00
2022-09-03T02:05:30.093Z,100.00
2022-09-03T02:08:08.298Z,100.00
2022-09-03T02:11:03.042Z,100.00
2022-09-03T02:13:46.423Z,100.00
2022-09-03T02:16:20.560Z,100.00
2022-09-03T02:19:10.971Z,100.00
2022-09-03T02:21:48.777Z,100.00
2022-09-03T02:24:16.351Z,100.00
2022-09-03T02:26:43.946Z,100.00
2022-09-03T02:29:11.349Z,100.00
2022-09-03T02:31:39.061Z,100.00
2022-09-03T02:34:06.485Z,100.00
2022-09-03T02:36:36.554Z,100.00
2022-09-03T02:39:05.153Z,100.00
2022-09-03T02:41:32.803Z,100.00
2022-09-03T02:44:25.870Z,100.00
2022-09-03T02:47:05.142Z,100.00
2022-09-03T02:49:32.846Z,100.00
2022-09-03T02:52:06.506Z,100.00
2022-09-03T02:54:36.423Z,100.00
2022-09-03T02:57:04.157Z,100.00
2022-09-03T02:59:31.561Z,100.00
2022-09-03T03:02:01.209Z,100.00
2022-09-03T03:04:30.435Z,100.00
2022-09-03T03:06:58.343Z,100.00
2022-09-03T03:09:25.935Z,100.00
2022-09-03T03:11:55.528Z,100.00
2022-09-03T03:14:23.145Z,100.00
2022-09-03T03:16:51.555Z,100.00
2022-09-03T03:19:19.709Z,100.00
2022-09-03T03:21:47.027Z,100.00
2022-09-03T03:24:14.425Z,100.00
2022-09-03T03:26:42.112Z,100.00
2022-09-03T03:29:15.069Z,100.00
2022-09-03T03:31:42.357Z,100.00
2022-09-03T03:34:09.612Z,100.00
2022-09-03T03:36:36.848Z,100.00
2022-09-03T03:39:04.555Z,100.00
2022-09-03T03:41:36.219Z,100.00
2022-09-03T03:44:05.876Z,100.00
2022-09-03T03:46:42.438Z,100.00
2022-09-03T03:49:11.118Z,100.00
2022-09-03T03:51:39.187Z,100.00
2022-09-03T03:54:06.653Z,100.00
2022-09-03T03:56:34.724Z,100.00
2022-09-03T03:59:02.783Z,100.00
2022-09-03T04:01:30.622Z,100.00
2022-09-03T04:04:00.048Z,100.00
2022-09-03T04:06:28.923Z,100.00
2022-09-03T04:08:56.324Z,100.00
2022-09-03T04:11:24.894Z,100.00
2022-09-03T04:13:52.860Z,100.00
2022-09-03T04:16:27.386Z,100.00
2022-09-03T04:18:55.803Z,100.00
2022-09-03T04:21:28.650Z,100.00
2022-09-03T04:23:57.407Z,100.00
2022-09-03T04:26:28.700Z,100.00
2022-09-03T04:28:55.894Z,100.00
2022-09-03T04:31:23.458Z,100.00
2022-09-03T04:33:51.483Z,100.00
2022-09-03T04:36:23.310Z,100.00
2022-09-03T04:38:54.241Z,100.00
2022-09-03T04:41:26.344Z,100.00
2022-09-03T04:43:55.077Z,100.00
2022-09-03T04:46:26.249Z,100.00
2022-09-03T04:48:55.080Z,100.00
2022-09-03T04:51:27.294Z,100.00
2022-09-03T04:54:00.305Z,100.00
2022-09-03T04:56:28.612Z,100.00
2022-09-03T04:58:58.181Z,100.00
2022-09-03T05:01:29.595Z,100.00
2022-09-03T05:03:58.261Z,100.00
2022-09-03T05:06:26.522Z,100.00
2022-09-03T05:08:54.684Z,100.00
2022-09-03T05:11:23.440Z,100.00
2022-09-03T05:13:52.754Z,100.00
2022-09-03T05:16:20.934Z,100.00
2022-09-03T05:18:48.896Z,98.44
2022-09-03T05:21:18.435Z,96.57
2022-09-03T05:23:47.598Z,96.19
2022-09-03T05:26:17.879Z,95.25
2022-09-03T05:28:45.667Z,94.71
2022-09-03T05:31:18.479Z,95.00
2022-09-03T05:33:51.458Z,94.73
2022-09-03T05:36:25.754Z,93.43
2022-09-03T05:38:56.289Z,91.42
2022-09-03T05:41:26.691Z,89.07
2022-09-03T05:43:56.323Z,84.57
2022-09-03T05:46:30.234Z,85.54
2022-09-03T05:49:02.212Z,85.08
2022-09-03T05:51:31.270Z,83.48
2022-09-03T05:53:58.917Z,81.23
2022-09-03T05:56:29.900Z,79.26
2022-09-03T05:59:03.204Z,81.26
2022-09-03T06:01:31.290Z,80.53
2022-09-03T06:04:00.952Z,80.80
2022-09-03T06:06:30.103Z,80.67
2022-09-03T06:08:59.644Z,80.32
2022-09-03T06:11:29.681Z,79.65
2022-09-03T06:13:58.002Z,81.18
2022-09-03T06:16:29.003Z,79.66
2022-09-03T06:19:00.774Z,79.03
2022-09-03T06:21:28.438Z,78.38
2022-09-03T06:23:58.425Z,79.27
2022-09-03T06:26:29.509Z,77.06
2022-09-03T06:28:57.670Z,76.12
2022-09-03T06:31:25.907Z,74.94
2022-09-03T06:33:55.082Z,72.98
2022-09-03T06:36:24.443Z,70.89
2022-09-03T06:38:53.428Z,70.52
2022-09-03T06:41:26.493Z,69.20
2022-09-03T06:44:04.405Z,66.70
2022-09-03T06:46:35.111Z,67.33
2022-09-03T06:49:02.731Z,65.33
2022-09-03T06:51:32.197Z,65.60
2022-09-03T06:54:07.899Z,66.50
2022-09-03T06:56:40.197Z,65.40
2022-09-03T06:59:13.283Z,62.13
2022-09-03T07:01:44.052Z,62.47
2022-09-03T07:04:14.066Z,61.90
2022-09-03T07:06:42.870Z,61.86
2022-09-03T07:09:12.062Z,62.18
2022-09-03T07:11:47.729Z,61.90
2022-09-03T07:14:20.017Z,62.66
2022-09-03T07:16:48.956Z,62.40
2022-09-03T07:19:16.856Z,62.08
2022-09-03T07:21:49.253Z,60.73
2022-09-03T07:24:19.880Z,60.49
2022-09-03T07:26:47.289Z,60.76
2022-09-03T07:29:16.114Z,59.94
2022-09-03T07:31:44.421Z,55.71
2022-09-03T07:34:13.356Z,54.18
2022-09-03T07:36:43.264Z,53.27
2022-09-03T07:39:12.803Z,55.08
2022-09-03T07:41:42.871Z,53.57
2022-09-03T07:44:10.458Z,53.29
2022-09-03T07:46:38.946Z,49.14
2022-09-03T07:49:06.833Z,50.65
2022-09-03T07:51:36.549Z,53.21
2022-09-03T07:54:07.816Z,49.23
2022-09-03T07:56:36.113Z,47.77
2022-09-03T07:59:04.664Z,48.44
2022-09-03T08:01:33.460Z,48.80
2022-09-03T08:04:02.951Z,50.67
2022-09-03T08:06:31.400Z,50.52
2022-09-03T08:09:05.015Z,46.25
2022-09-03T08:11:36.005Z,46.69
2022-09-03T08:14:06.956Z,45.62
2022-09-03T08:16:36.963Z,44.56
2022-09-03T08:19:05.165Z,44.27
2022-09-03T08:21:32.992Z,44.36
2022-09-03T08:24:03.125Z,44.26
2022-09-03T08:26:33.614Z,43.19
2022-09-03T08:29:01.235Z,42.47
2022-09-03T08:31:29.381Z,43.19
2022-09-03T08:33:59.225Z,43.88
2022-09-03T08:36:30.178Z,44.28
2022-09-03T08:39:04.163Z,41.00
2022-09-03T08:41:42.693Z,40.84
2022-09-03T08:44:18.766Z,43.25
2022-09-03T08:46:51.862Z,42.95
2022-09-03T08:49:29.237Z,44.28
2022-09-03T08:51:57.677Z,40.96
2022-09-03T08:54:28.133Z,42.83
2022-09-03T08:56:56.221Z,40.76
2022-09-03T08:59:24.647Z,40.77
2022-09-03T09:02:25.567Z,37.62
2022-09-03T09:05:14.899Z,38.06
2022-09-03T09:08:03.184Z,39.90
2022-09-03T09:10:42.148Z,41.70
2022-09-03T09:13:31.259Z,45.18
2022-09-03T09:16:32.462Z,41.32
2022-09-03T09:18:59.830Z,41.68
2022-09-03T09:21:49.631Z,39.31
2022-09-03T09:24:26.519Z,39.41
2022-09-03T09:27:00.523Z,40.98
2022-09-03T09:29:32.602Z,41.17
2022-09-03T09:32:00.175Z,39.47
2022-09-03T09:34:28.052Z,39.72
2022-09-03T09:36:56.493Z,39.90
2022-09-03T09:39:24.250Z,41.74
2022-09-03T09:42:13.400Z,40.56
2022-09-03T09:44:43.451Z,43.23
2022-09-03T09:47:14.664Z,41.02
2022-09-03T09:49:57.059Z,43.05
2022-09-03T09:52:28.738Z,42.27
2022-09-03T09:55:09.324Z,42.49
2022-09-03T09:57:38.075Z,43.45
2022-09-03T10:00:12.422Z,42.38
2022-09-03T10:02:57.058Z,41.53
2022-09-03T10:05:37.825Z,41.69
2022-09-03T10:08:25.259Z,41.86
2022-09-03T10:10:52.897Z,42.67
2022-09-03T10:13:33.562Z,42.04
2022-09-03T10:16:27.709Z,40.54
2022-09-03T10:19:10.548Z,39.39
2022-09-03T10:21:54.520Z,39.55
2022-09-03T10:24:39.669Z,39.81
2022-09-03T10:27:12.651Z,39.64
2022-09-03T10:29:40.940Z,40.95
2022-09-03T10:32:23.459Z,40.25
2022-09-03T10:35:28.831Z,41.63
2022-09-03T10:38:22.431Z,38.47
2022-09-03T10:41:28.976Z,40.77
2022-09-03T10:43:59.375Z,42.98
2022-09-03T10:46:59.701Z,40.86
2022-09-03T10:49:36.990Z,40.00
2022-09-03T10:52:37.136Z,40.71
2022-09-03T10:55:18.787Z,42.66
2022-09-03T10:57:57.069Z,43.55
2022-09-03T11:00:26.243Z,42.37
2022-09-03T11:03:31.013Z,42.43
2022-09-03T11:06:07.683Z,41.60
2022-09-03T11:08:43.633Z,39.39
2022-09-03T11:11:15.521Z,37.93
2022-09-03T11:14:15.900Z,39.72
2022-09-03T11:16:46.975Z,38.35
2022-09-03T11:19:17.950Z,40.15
2022-09-03T11:21:46.524Z,38.74
2022-09-03T11:24:22.352Z,39.08
2022-09-03T11:27:12.849Z,39.06
2022-09-03T11:29:48.007Z,37.68
2022-09-03T11:32:25.575Z,36.93
2022-09-03T11:34:54.854Z,38.31
2022-09-03T11:37:30.446Z,38.88
2022-09-03T11:40:08.092Z,39.00
2022-09-03T11:42:38.074Z,38.33
2022-09-03T11:45:24.079Z,39.14
2022-09-03T11:47:52.022Z,38.84
2022-09-03T11:50:28.576Z,40.21
2022-09-03T11:53:13.605Z,40.46
2022-09-03T11:56:00.949Z,36.35
2022-09-03T11:58:40.734Z,39.14
2022-09-03T12:01:16.530Z,36.76
2022-09-03T12:03:48.005Z,37.02
2022-09-03T12:06:33.715Z,37.46
2022-09-03T12:09:07.933Z,35.59
2022-09-03T12:11:36.044Z,37.17
2022-09-03T12:14:30.504Z,37.92
2022-09-03T12:17:35.607Z,37.34
2022-09-03T12:20:04.617Z,36.30
2022-09-03T12:22:38.870Z,36.58
2022-09-03T12:25:15.123Z,37.06
2022-09-03T12:27:44.766Z,38.41
2022-09-03T12:30:18.695Z,37.21
2022-09-03T12:32:46.662Z,36.87
2022-09-03T12:38:07.022Z,36.96
2022-09-03T12:43:38.925Z,38.73
2022-09-03T12:46:14.766Z,37.77
2022-09-03T12:52:15.885Z,36.11
2022-09-03T12:54:50.273Z,34.97
2022-09-03T12:57:22.040Z,35.51
2022-09-03T12:59:49.936Z,34.04
2022-09-03T13:02:22.722Z,35.13
2022-09-03T13:04:51.855Z,34.89
2022-09-03T13:07:37.391Z,34.63
2022-09-03T13:10:21.232Z,34.53
2022-09-03T13:12:53.181Z,32.69
2022-09-03T13:15:25.248Z,33.20
2022-09-03T13:18:09.441Z,33.23
2022-09-03T13:20:52.162Z,33.76
2022-09-03T13:23:22.323Z,33.23
2022-09-03T13:26:10.733Z,34.96
2022-09-03T13:29:16.873Z,32.95
2022-09-03T13:31:48.597Z,33.54
2022-09-03T13:34:36.460Z,33.96
2022-09-03T13:37:28.656Z,32.19
2022-09-03T13:40:00.302Z,33.27
2022-09-03T13:42:31.498Z,33.85
2022-09-03T13:44:58.979Z,32.89
2022-09-03T13:47:29.929Z,34.67
2022-09-03T13:50:24.278Z,34.06
2022-09-03T13:53:10.725Z,33.72
2022-09-03T13:55:49.142Z,36.26
2022-09-03T13:58:31.676Z,33.51
2022-09-03T14:00:59.677Z,33.23
2022-09-03T14:03:39.862Z,33.53
2022-09-03T14:06:26.652Z,33.31
2022-09-03T14:09:21.551Z,33.36
2022-09-03T14:12:06.566Z,34.09
2022-09-03T14:14:59.535Z,34.86
2022-09-03T14:17:52.346Z,36.01
2022-09-03T14:20:24.290Z,35.65
2022-09-03T14:23:04.101Z,35.66
2022-09-03T14:25:33.084Z,34.13
2022-09-03T14:28:32.180Z,34.65
2022-09-03T14:31:25.374Z,35.29
2022-09-03T14:34:00.143Z,35.98
2022-09-03T14:36:56.479Z,34.54
2022-09-03T14:39:45.679Z,36.14
2022-09-03T14:42:38.380Z,36.95
2022-09-03T14:45:08.864Z,36.77
2022-09-03T14:47:58.850Z,36.30
2022-09-03T14:50:32.918Z,37.29
2022-09-03T14:53:25.181Z,36.48
2022-09-03T14:56:05.579Z,35.74
2022-09-03T14:59:01.096Z,35.47
2022-09-03T15:01:38.825Z,35.85
2022-09-03T15:04:34.063Z,36.94
2022-09-03T15:07:17.605Z,37.39
2022-09-03T15:09:57.593Z,37.42
2022-09-03T15:12:28.055Z,37.30
2022-09-03T15:14:57.482Z,38.44
2022-09-03T15:17:46.026Z,37.49
2022-09-03T15:20:19.428Z,38.36
2022-09-03T15:23:05.810Z,37.72
2022-09-03T15:26:08.678Z,39.37
2022-09-03T15:29:09.887Z,40.57
2022-09-03T15:32:26.274Z,39.06
2022-09-03T15:35:04.551Z,39.31
2022-09-03T15:37:53.112Z,39.04
2022-09-03T15:40:32.882Z,39.56
2022-09-03T15:43:22.950Z,40.37
2022-09-03T15:46:26.514Z,41.28
2022-09-03T15:49:03.024Z,41.54
2022-09-03T15:51:37.401Z,41.92
2022-09-03T15:54:16.262Z,43.16
2022-09-03T15:56:52.763Z,42.15
2022-09-03T15:59:31.842Z,41.73
2022-09-03T16:02:11.244Z,41.37
2022-09-03T16:05:06.547Z,42.11
2022-09-03T16:07:49.681Z,42.62
2022-09-03T16:10:26.840Z,41.59
2022-09-03T16:13:06.835Z,41.45
2022-09-03T16:15:44.360Z,42.18
2022-09-03T16:18:33.096Z,41.00
2022-09-03T16:21:07.381Z,41.35
2022-09-03T16:23:43.471Z,42.41
2022-09-03T16:26:18.958Z,42.81
2022-09-03T16:28:54.300Z,41.34
2022-09-03T16:31:44.127Z,43.25
2022-09-03T16:34:56.230Z,43.44
2022-09-03T16:37:27.355Z,43.84
2022-09-03T16:40:27.806Z,44.38
2022-09-03T16:43:00.025Z,44.07
2022-09-03T16:45:52.027Z,44.45
2022-09-03T16:48:30.854Z,44.99
2022-09-03T16:51:21.398Z,45.26
2022-09-03T16:54:20.321Z,44.71
2022-09-03T16:57:10.148Z,46.18
2022-09-03T16:59:47.541Z,46.19
2022-09-03T17:02:41.549Z,50.22
2022-09-03T17:05:13.175Z,52.66
2022-09-03T17:08:06.128Z,53.82
2022-09-03T17:10:40.479Z,55.09
2022-09-03T17:13:45.023Z,58.74
2022-09-03T17:16:49.828Z,60.13
2022-09-03T17:19:39.910Z,59.20
2022-09-03T17:22:28.991Z,58.06
2022-09-03T17:25:05.421Z,63.12
2022-09-03T17:27:47.572Z,67.49
2022-09-03T17:31:01.220Z,69.33
2022-09-03T17:33:50.448Z,72.03
2022-09-03T17:36:22.293Z,73.27
2022-09-03T17:39:25.594Z,73.63
2022-09-03T17:42:01.875Z,73.85
2022-09-03T17:44:41.806Z,74.84
2022-09-03T17:47:37.381Z,79.25
2022-09-03T17:50:11.022Z,79.91
2022-09-03T17:52:58.312Z,82.35
2022-09-03T17:55:28.841Z,83.44
2022-09-03T17:58:30.830Z,84.47
2022-09-03T18:01:10.602Z,84.19
2022-09-03T18:03:59.532Z,84.24
2022-09-03T18:06:28.666Z,85.58
2022-09-03T18:08:55.872Z,89.40
2022-09-03T18:11:47.192Z,89.99
2022-09-03T18:14:34.485Z,91.05
2022-09-03T18:17:10.063Z,92.53
2022-09-03T18:20:13.294Z,93.93
2022-09-03T18:23:37.066Z,96.27
2022-09-03T18:26:27.124Z,96.16
2022-09-03T18:29:20.470Z,97.82
2022-09-03T18:32:06.697Z,98.56
2022-09-03T18:34:54.786Z,99.76
2022-09-03T18:37:43.483Z,100.00
2022-09-03T18:40:38.312Z,99.67
2022-09-03T18:43:33.713Z,100.00
2022-09-03T18:49:47.126Z,100.00
2022-09-03T18:52:44.727Z,100.00
2022-09-03T18:55:39.391Z,100.00
2022-09-03T18:58:55.718Z,100.00
2022-09-03T19:01:54.422Z,100.00
2022-09-03T19:05:25.280Z,100.00
2022-09-03T19:08:20.850Z,100.00
2022-09-03T19:11:28.185Z,100.00
2022-09-03T19:14:19.118Z,100.00
2022-09-03T19:17:27.134Z,100.00
2022-09-03T19:20:46.262Z,100.00
2022-09-03T19:23:33.019Z,100.00
2022-09-03T19:26:26.892Z,100.00
2022-09-03T19:29:13.740Z,100.00
2022-09-03T19:32:05.178Z,100.00
2022-09-03T19:34:56.962Z,100.00
2022-09-03T19:38:02.073Z,100.00
2022-09-03T19:41:06.734Z,100.00
2022-09-03T19:43:57.800Z,100.00
2022-09-03T19:46:53.159Z,100.00
2022-09-03T19:50:15.586Z,100.00
2022-09-03T19:53:13.166Z,100.00
2022-09-03T19:56:09.183Z,100.00
2022-09-03T19:58:58.819Z,100.00
2022-09-03T20:01:52.034Z,100.00
2022-09-03T20:04:39.945Z,100.00
2022-09-03T20:07:28.984Z,100.00
2022-09-03T20:10:17.150Z,100.00
2022-09-03T20:12:49.536Z,100.00
2022-09-03T20:15:17.145Z,100.00
2022-09-03T20:18:09.693Z,100.00
2022-09-03T20:20:49.466Z,100.00
2022-09-03T20:23:47.761Z,100.00
2022-09-03T20:26:27.868Z,100.00
2022-09-03T20:29:14.185Z,100.00
2022-09-03T20:31:54.679Z,100.00
2022-09-03T20:34:53.415Z,100.00
2022-09-03T20:37:59.478Z,100.00
2022-09-03T20:40:32.699Z,100.00
2022-09-03T20:43:24.856Z,100.00
2022-09-03T20:46:30.498Z,100.00
2022-09-03T20:49:22.769Z,100.00
2022-09-03T20:51:56.404Z,100.00
2022-09-03T20:54:33.803Z,100.00
2022-09-03T20:57:14.558Z,100.00
2022-09-03T20:59:57.032Z,100.00
2022-09-03T21:03:02.393Z,100.00
2022-09-03T21:05:55.260Z,100.00
2022-09-03T21:09:01.337Z,100.00
2022-09-03T21:11:56.412Z,100.00
2022-09-03T21:14:52.497Z,100.00
2022-09-03T21:17:42.139Z,100.00
2022-09-03T21:20:31.403Z,100.00
2022-09-03T21:23:17.541Z,100.00
2022-09-03T21:26:05.578Z,100.00
2022-09-03T21:28:40.501Z,100.00
2022-09-03T21:31:21.656Z,100.00
2022-09-03T21:33:57.287Z,100.00
2022-09-03T21:36:32.237Z,100.00
2022-09-03T21:39:16.382Z,100.00
2022-09-03T21:41:56.303Z,100.00
2022-09-03T21:44:55.790Z,100.00
2022-09-03T21:47:25.144Z,100.00
2022-09-03T21:50:01.525Z,100.00
2022-09-03T21:52:44.823Z,100.00
2022-09-03T21:55:27.039Z,100.00
2022-09-03T21:58:12.912Z,100.00
2022-09-03T22:00:40.667Z,100.00
2022-09-03T22:03:10.764Z,100.00
2022-09-03T22:05:53.348Z,100.00
2022-09-03T22:08:45.394Z,100.00
2022-09-03T22:11:21.513Z,100.00
2022-09-03T22:14:11.931Z,100.00
2022-09-03T22:16:54.262Z,100.00
2022-09-03T22:19:22.195Z,100.00
2022-09-03T22:22:02.436Z,100.00
2022-09-03T22:24:45.334Z,100.00
2022-09-03T22:27:35.661Z,100.00
2022-09-03T22:30:06.456Z,100.00
2022-09-03T22:33:01.011Z,100.00
2022-09-03T22:35:37.726Z,100.00
2022-09-03T22:38:24.631Z,100.00
2022-09-03T22:41:11.049Z,100.00
2022-09-03T22:43:53.536Z,100.00
2022-09-03T22:46:23.452Z,100.00
2022-09-03T22:49:09.426Z,100.00
2022-09-03T22:51:53.750Z,100.00
2022-09-03T22:54:23.985Z,100.00
2022-09-03T22:56:53.219Z,100.00
2022-09-03T22:59:33.642Z,100.00
2022-09-03T23:02:24.084Z,100.00
2022-09-03T23:04:59.535Z,100.00
2022-09-03T23:07:54.394Z,100.00
2022-09-03T23:10:26.891Z,100.00
2022-09-03T23:13:17.232Z,100.00
2022-09-03T23:15:57.956Z,100.00
2022-09-03T23:18:27.260Z,100.00
2022-09-03T23:21:34.936Z,100.00
2022-09-03T23:24:08.312Z,100.00
2022-09-03T23:26:36.727Z,100.00
2022-09-03T23:29:24.218Z,100.00
2022-09-03T23:31:53.272Z,100.00
2022-09-03T23:34:21.115Z,100.00
2022-09-03T23:37:16.178Z,100.00
2022-09-03T23:39:52.097Z,100.00
2022-09-03T23:42:46.220Z,100.00
2022-09-03T23:45:51.531Z,100.00
2022-09-03T23:48:43.684Z,100.00
2022-09-03T23:51:35.920Z,100.00
2022-09-03T23:54:30.320Z,100.00
2022-09-03T23:57:27.064Z,100.00
